createdAt,value
2022-08-11T00:01:14.508Z,17.70
2022-08-11T00:03:46.938Z,17.70
2022-08-11T00:06:16.415Z,17.70
2022-08-11T00:08:50.645Z,17.70
2022-08-11T00:11:20.010Z,17.70
2022-08-11T00:13:51.122Z,17.60
2022-08-11T00:16:22.744Z,17.50
2022-08-11T00:18:53.470Z,17.30
2022-08-11T00:22:01.982Z,17.30
2022-08-11T00:24:11.780Z,17.20
2022-08-11T00:26:39.837Z,17.30
2022-08-11T00:29:11.756Z,17.30
2022-08-11T00:31:48.650Z,17.20
2022-08-11T00:34:18.930Z,17.10
2022-08-11T00:36:51.322Z,17.10
2022-08-11T00:39:29.183Z,17.10
2022-08-11T00:42:11.912Z,17.00
2022-08-11T00:44:53.667Z,17.00
2022-08-11T00:47:34.523Z,17.00
2022-08-11T00:50:16.064Z,16.90
2022-08-11T00:53:25.033Z,16.90
2022-08-11T00:56:44.329Z,16.80
2022-08-11T00:59:49.413Z,16.80
2022-08-11T01:02:20.214Z,16.70
2022-08-11T01:05:16.962Z,16.70
2022-08-11T01:08:29.957Z,16.70
2022-08-11T01:11:18.618Z,16.70
2022-08-11T01:14:12.051Z,16.70
2022-08-11T01:17:29.592Z,16.70
2022-08-11T01:20:46.881Z,16.80
2022-08-11T01:23:54.580Z,16.80
2022-08-11T01:27:19.133Z,16.80
2022-08-11T01:30:16.585Z,16.70
2022-08-11T01:33:34.865Z,16.60
2022-08-11T01:36:33.037Z,16.60
2022-08-11T01:39:33.127Z,16.50
2022-08-11T01:42:40.965Z,16.50
2022-08-11T01:45:22.249Z,16.40
2022-08-11T01:48:04.535Z,16.30
2022-08-11T01:50:46.390Z,16.30
2022-08-11T01:53:29.483Z,16.20
2022-08-11T01:56:14.128Z,16.20
2022-08-11T01:58:47.264Z,16.20
2022-08-11T02:01:33.350Z,16.20
2022-08-11T02:04:10.548Z,16.20
2022-08-11T02:06:56.631Z,16.20
2022-08-11T02:09:49.671Z,16.20
2022-08-11T02:12:37.611Z,16.20
2022-08-11T02:15:15.843Z,16.30
2022-08-11T02:17:55.083Z,16.20
2022-08-11T02:20:44.848Z,16.40
2022-08-11T02:24:07.077Z,16.40
2022-08-11T02:26:40.894Z,16.40
2022-08-11T02:29:19.807Z,16.40
2022-08-11T02:32:24.277Z,16.20
2022-08-11T02:35:04.483Z,16.10
2022-08-11T02:37:45.210Z,16.20
2022-08-11T02:40:23.263Z,16.30
2022-08-11T02:43:10.578Z,16.30
2022-08-11T02:45:54.419Z,16.20
2022-08-11T02:48:59.351Z,16.10
2022-08-11T02:51:36.195Z,16.00
2022-08-11T02:54:12.743Z,15.80
2022-08-11T02:56:52.223Z,15.70
2022-08-11T02:59:47.351Z,15.60
2022-08-11T03:02:23.560Z,15.60
2022-08-11T03:05:08.297Z,15.60
2022-08-11T03:07:49.325Z,15.60
2022-08-11T03:10:22.780Z,15.60
2022-08-11T03:13:15.569Z,15.50
2022-08-11T03:16:07.529Z,15.50
2022-08-11T03:18:46.468Z,15.50
2022-08-11T03:21:24.233Z,15.50
2022-08-11T03:24:19.448Z,15.50
2022-08-11T03:26:57.319Z,15.50
2022-08-11T03:29:37.875Z,15.50
2022-08-11T03:32:12.623Z,15.50
2022-08-11T03:34:44.611Z,15.50
2022-08-11T03:37:51.907Z,15.50
2022-08-11T03:41:01.933Z,15.50
2022-08-11T03:43:58.355Z,15.50
2022-08-11T03:46:39.585Z,15.50
2022-08-11T03:49:20.724Z,15.40
2022-08-11T03:51:55.163Z,15.40
2022-08-11T03:54:35.337Z,15.20
2022-08-11T03:57:46.757Z,15.10
2022-08-11T04:00:37.429Z,15.00
2022-08-11T04:03:43.195Z,15.00
2022-08-11T04:06:45.082Z,14.90
2022-08-11T04:10:01.327Z,14.80
2022-08-11T04:12:56.024Z,14.80
2022-08-11T04:16:11.827Z,14.70
2022-08-11T04:19:24.732Z,14.70
2022-08-11T04:22:39.867Z,14.60
2022-08-11T04:25:30.007Z,14.60
2022-08-11T04:28:42.859Z,14.70
2022-08-11T04:31:44.215Z,14.70
2022-08-11T04:35:07.991Z,14.80
2022-08-11T04:38:06.453Z,14.80
2022-08-11T04:41:21.888Z,14.90
2022-08-11T04:44:30.260Z,15.00
2022-08-11T04:47:58.170Z,15.10
2022-08-11T04:51:00.725Z,15.10
2022-08-11T04:54:12.058Z,15.20
2022-08-11T04:57:02.319Z,15.20
2022-08-11T05:00:11.948Z,15.20
2022-08-11T05:03:17.206Z,15.30
2022-08-11T05:06:12.754Z,15.40
2022-08-11T05:09:14.269Z,15.40
2022-08-11T05:12:07.218Z,15.50
2022-08-11T05:14:57.310Z,15.60
2022-08-11T05:17:53.298Z,15.70
2022-08-11T05:20:40.080Z,15.80
2022-08-11T05:23:28.935Z,15.90
2022-08-11T05:26:46.598Z,16.00
2022-08-11T05:29:47.007Z,16.10
2022-08-11T05:32:35.042Z,16.10
2022-08-11T05:35:07.421Z,16.20
2022-08-11T05:37:42.271Z,16.30
2022-08-11T05:40:31.050Z,16.50
2022-08-11T05:43:20.114Z,16.60
2022-08-11T05:46:15.824Z,16.80
2022-08-11T05:49:02.164Z,16.90
2022-08-11T05:51:55.356Z,17.10
2022-08-11T05:54:46.114Z,17.30
2022-08-11T05:57:48.345Z,17.40
2022-08-11T06:00:13.610Z,17.60
2022-08-11T06:02:43.736Z,17.80
2022-08-11T06:05:14.143Z,18.00
2022-08-11T06:07:49.588Z,18.10
2022-08-11T06:10:30.700Z,18.30
2022-08-11T06:13:01.104Z,18.50
2022-08-11T06:15:32.693Z,18.70
2022-08-11T06:18:02.856Z,18.90
2022-08-11T06:20:36.902Z,19.10
2022-08-11T06:23:08.582Z,19.20
2022-08-11T06:25:38.094Z,19.40
2022-08-11T06:28:08.515Z,19.60
2022-08-11T06:30:40.763Z,19.80
2022-08-11T06:33:11.550Z,20.00
2022-08-11T06:35:49.335Z,20.20
2022-08-11T06:38:31.526Z,20.30
2022-08-11T06:41:21.786Z,20.40
2022-08-11T06:43:56.409Z,20.50
2022-08-11T06:46:30.182Z,20.70
2022-08-11T06:48:59.548Z,20.80
2022-08-11T06:51:28.342Z,20.90
2022-08-11T06:54:05.572Z,21.00
2022-08-11T06:57:28.283Z,21.10
2022-08-11T07:00:02.014Z,21.20
2022-08-11T07:02:34.809Z,21.40
2022-08-11T07:05:08.327Z,21.50
2022-08-11T07:08:36.759Z,21.50
2022-08-11T07:11:52.463Z,21.60
2022-08-11T07:14:45.444Z,21.70
2022-08-11T07:17:22.212Z,21.80
2022-08-11T07:20:13.531Z,21.80
2022-08-11T07:23:02.203Z,21.90
2022-08-11T07:25:50.442Z,21.90
2022-08-11T07:28:40.387Z,22.00
2022-08-11T07:31:14.018Z,22.10
2022-08-11T07:34:07.300Z,22.20
2022-08-11T07:36:40.416Z,22.30
2022-08-11T07:39:13.246Z,22.30
2022-08-11T07:41:41.499Z,22.50
2022-08-11T07:44:11.539Z,22.70
2022-08-11T07:46:59.842Z,22.80
2022-08-11T07:49:48.358Z,22.70
2022-08-11T07:52:30.561Z,22.80
2022-08-11T07:55:02.302Z,22.90
2022-08-11T07:58:14.790Z,23.00
2022-08-11T08:00:59.186Z,23.10
2022-08-11T08:03:54.180Z,23.20
2022-08-11T08:06:40.949Z,23.30
2022-08-11T08:09:29.128Z,23.40
2022-08-11T08:12:15.224Z,23.50
2022-08-11T08:15:01.504Z,23.60
2022-08-11T08:18:09.264Z,23.70
2022-08-11T08:20:40.163Z,23.80
2022-08-11T08:23:09.340Z,23.90
2022-08-11T08:25:42.855Z,24.10
2022-08-11T08:28:14.011Z,24.20
2022-08-11T08:30:48.393Z,24.20
2022-08-11T08:33:21.216Z,24.20
2022-08-11T08:36:11.197Z,24.20
2022-08-11T08:38:41.243Z,24.40
2022-08-11T08:41:13.063Z,24.50
2022-08-11T08:43:48.382Z,24.60
2022-08-11T08:46:20.934Z,24.70
2022-08-11T08:48:50.403Z,24.90
2022-08-11T08:52:29.562Z,25.00
2022-08-11T08:54:28.923Z,25.10
2022-08-11T08:56:58.975Z,25.10
2022-08-11T08:59:47.447Z,25.10
2022-08-11T09:02:17.921Z,25.20
2022-08-11T09:04:48.035Z,25.30
2022-08-11T09:07:19.316Z,25.30
2022-08-11T09:09:50.024Z,25.30
2022-08-11T09:12:38.511Z,25.40
2022-08-11T09:15:10.336Z,25.50
2022-08-11T09:17:41.369Z,25.60
2022-08-11T09:20:12.778Z,25.70
2022-08-11T09:26:08.622Z,25.90
2022-08-11T09:28:38.587Z,26.10
2022-08-11T09:31:08.085Z,26.20
2022-08-11T09:33:37.279Z,26.20
2022-08-11T09:36:22.247Z,26.20
2022-08-11T09:39:09.746Z,26.40
2022-08-11T09:42:01.130Z,26.60
2022-08-11T09:44:48.567Z,26.90
2022-08-11T09:47:24.195Z,27.00
2022-08-11T09:49:54.701Z,27.00
2022-08-11T09:52:24.788Z,27.10
2022-08-11T09:54:54.444Z,27.30
2022-08-11T09:57:41.389Z,27.30
2022-08-11T10:00:15.060Z,27.40
2022-08-11T10:02:45.976Z,27.40
2022-08-11T10:05:36.048Z,27.60
2022-08-11T10:08:05.603Z,27.80
2022-08-11T10:10:38.468Z,27.80
2022-08-11T10:14:30.277Z,27.90
2022-08-11T10:16:16.328Z,28.00
2022-08-11T10:18:52.386Z,28.00
2022-08-11T10:21:28.503Z,28.20
2022-08-11T10:24:17.013Z,28.40
2022-08-11T10:26:56.684Z,28.60
2022-08-11T10:29:45.344Z,28.70
2022-08-11T10:32:57.866Z,28.90
2022-08-11T10:35:29.174Z,28.80
2022-08-11T10:38:07.442Z,28.90
2022-08-11T10:40:40.957Z,29.10
2022-08-11T10:43:13.731Z,29.10
2022-08-11T10:46:03.991Z,29.10
2022-08-11T10:48:38.283Z,29.30
2022-08-11T10:51:13.139Z,29.40
2022-08-11T10:54:01.471Z,29.60
2022-08-11T10:56:48.690Z,29.80
2022-08-11T10:59:17.999Z,30.20
2022-08-11T11:01:46.997Z,30.30
2022-08-11T11:04:18.483Z,30.30
2022-08-11T11:06:55.158Z,30.40
2022-08-11T11:09:32.413Z,30.50
2022-08-11T11:12:22.515Z,30.10
2022-08-11T11:15:10.345Z,30.00
2022-08-11T11:18:01.557Z,30.10
2022-08-11T11:20:39.177Z,30.50
2022-08-11T11:23:16.623Z,30.80
2022-08-11T11:26:27.080Z,30.60
2022-08-11T11:29:26.503Z,30.70
2022-08-11T11:32:10.471Z,30.80
2022-08-11T11:34:53.518Z,31.00
2022-08-11T11:37:24.752Z,31.10
2022-08-11T11:39:54.038Z,31.20
2022-08-11T11:42:22.886Z,30.90
2022-08-11T11:44:55.326Z,31.10
2022-08-11T11:47:24.798Z,31.10
2022-08-11T11:49:54.376Z,31.10
2022-08-11T11:52:24.894Z,31.40
2022-08-11T11:54:56.051Z,31.50
2022-08-11T11:57:59.397Z,31.70
2022-08-11T12:00:49.289Z,31.80
2022-08-11T12:03:18.929Z,31.70
2022-08-11T12:05:47.721Z,31.40
2022-08-11T12:08:18.633Z,31.30
2022-08-11T12:10:49.318Z,31.60
2022-08-11T12:13:36.313Z,32.10
2022-08-11T12:16:32.871Z,32.60
2022-08-11T12:18:56.511Z,32.50
2022-08-11T12:21:25.482Z,32.70
2022-08-11T12:24:14.949Z,32.60
2022-08-11T12:27:16.028Z,32.60
2022-08-11T12:29:52.794Z,32.50
2022-08-11T12:32:24.550Z,32.90
2022-08-11T12:34:52.755Z,33.30
2022-08-11T12:37:30.166Z,33.30
2022-08-11T12:40:48.816Z,33.30
2022-08-11T12:43:37.858Z,33.30
2022-08-11T12:46:09.984Z,33.40
2022-08-11T12:49:03.312Z,33.70
2022-08-11T12:52:12.225Z,33.50
2022-08-11T12:54:58.863Z,33.70
2022-08-11T12:57:51.208Z,34.10
2022-08-11T13:00:38.139Z,34.50
2022-08-11T13:03:26.103Z,34.60
2022-08-11T13:05:57.391Z,34.10
2022-08-11T13:08:27.803Z,33.70
2022-08-11T13:11:15.724Z,33.90
2022-08-11T13:13:55.500Z,34.20
2022-08-11T13:16:27.299Z,34.40
2022-08-11T13:18:56.562Z,34.40
2022-08-11T13:21:28.076Z,34.40
2022-08-11T13:24:00.291Z,34.80
2022-08-11T13:26:47.529Z,35.00
2022-08-11T13:29:20.925Z,34.90
2022-08-11T13:31:50.044Z,34.90
2022-08-11T13:34:19.733Z,35.30
2022-08-11T13:36:51.965Z,35.90
2022-08-11T13:39:24.077Z,36.20
2022-08-11T13:41:55.203Z,37.10
2022-08-11T13:44:28.128Z,37.30
2022-08-11T13:46:58.805Z,36.80
2022-08-11T13:49:28.048Z,36.30
2022-08-11T13:51:57.079Z,35.70
2022-08-11T13:54:28.527Z,35.30
2022-08-11T13:57:03.710Z,35.10
2022-08-11T13:59:52.044Z,35.20
2022-08-11T14:02:29.032Z,35.50
2022-08-11T14:05:00.179Z,35.70
2022-08-11T14:07:35.807Z,35.80
2022-08-11T14:10:05.626Z,35.40
2022-08-11T14:12:54.285Z,35.40
2022-08-11T14:15:27.658Z,36.50
2022-08-11T14:18:03.306Z,36.20
2022-08-11T14:20:53.820Z,35.90
2022-08-11T14:23:28.881Z,35.60
2022-08-11T14:26:15.029Z,36.00
2022-08-11T14:28:45.241Z,36.40
2022-08-11T14:31:16.448Z,36.10
2022-08-11T14:33:59.886Z,36.10
2022-08-11T14:36:32.817Z,36.10
2022-08-11T14:39:03.668Z,36.30
2022-08-11T14:42:11.671Z,36.80
2022-08-11T14:45:16.563Z,37.00
2022-08-11T14:47:49.965Z,36.70
2022-08-11T14:50:23.192Z,35.80
2022-08-11T14:52:54.973Z,35.40
2022-08-11T14:55:42.684Z,35.80
2022-08-11T14:58:12.098Z,36.70
2022-08-11T15:00:42.399Z,36.80
2022-08-11T15:03:14.010Z,36.50
2022-08-11T15:05:57.242Z,36.50
2022-08-11T15:08:46.268Z,36.10
2022-08-11T15:11:34.241Z,36.10
2022-08-11T15:14:05.023Z,36.40
2022-08-11T15:16:48.107Z,36.80
2022-08-11T15:19:21.287Z,37.80
2022-08-11T15:22:07.624Z,37.00
2022-08-11T15:24:36.938Z,36.60
2022-08-11T15:27:27.714Z,36.30
2022-08-11T15:30:20.945Z,36.70
2022-08-11T15:33:20.299Z,36.80
2022-08-11T15:36:08.990Z,36.70
2022-08-11T15:38:43.433Z,36.10
2022-08-11T15:41:34.174Z,36.70
2022-08-11T15:44:51.322Z,36.50
2022-08-11T15:47:19.571Z,36.20
2022-08-11T15:50:10.712Z,36.00
2022-08-11T15:52:48.744Z,35.80
2022-08-11T15:55:18.493Z,35.40
2022-08-11T15:58:07.436Z,35.70
2022-08-11T16:01:03.652Z,36.00
2022-08-11T16:04:07.931Z,36.10
2022-08-11T16:06:47.594Z,36.00
2022-08-11T16:09:24.704Z,36.40
2022-08-11T16:11:57.531Z,35.90
2022-08-11T16:14:44.440Z,36.10
2022-08-11T16:17:15.172Z,36.10
2022-08-11T16:19:45.226Z,35.80
2022-08-11T16:22:28.055Z,35.90
2022-08-11T16:27:07.088Z,35.50
2022-08-11T16:27:55.216Z,35.30
2022-08-11T16:30:27.484Z,35.10
2022-08-11T16:32:57.449Z,35.50
2022-08-11T16:35:44.317Z,35.10
2022-08-11T16:38:31.493Z,34.60
2022-08-11T16:41:05.373Z,34.60
2022-08-11T16:43:59.474Z,34.70
2022-08-11T16:46:46.211Z,35.30
2022-08-11T16:49:18.999Z,35.00
2022-08-11T16:51:47.388Z,35.10
2022-08-11T16:54:15.642Z,34.80
2022-08-11T16:56:48.513Z,34.70
2022-08-11T16:59:20.573Z,34.80
2022-08-11T17:01:53.286Z,34.10
2022-08-11T17:04:54.237Z,33.70
2022-08-11T17:07:43.198Z,33.80
2022-08-11T17:10:53.459Z,34.20
2022-08-11T17:13:32.671Z,34.20
2022-08-11T17:16:12.533Z,33.70
2022-08-11T17:18:51.215Z,33.80
2022-08-11T17:21:22.619Z,33.90
2022-08-11T17:23:54.925Z,33.70
2022-08-11T17:26:52.416Z,33.00
2022-08-11T17:29:25.660Z,32.80
2022-08-11T17:32:13.322Z,32.60
2022-08-11T17:35:01.446Z,32.10
2022-08-11T17:37:33.073Z,31.90
2022-08-11T17:40:03.458Z,31.70
2022-08-11T17:42:50.543Z,31.60
2022-08-11T17:45:39.249Z,31.50
2022-08-11T17:48:25.438Z,31.40
2022-08-11T17:50:55.836Z,31.20
2022-08-11T17:54:15.938Z,30.80
2022-08-11T17:56:50.968Z,30.20
2022-08-11T17:59:36.917Z,29.80
2022-08-11T18:02:21.293Z,29.60
2022-08-11T18:05:02.823Z,29.30
2022-08-11T18:07:48.569Z,29.00
2022-08-11T18:10:39.859Z,28.80
2022-08-11T18:13:26.262Z,28.60
2022-08-11T18:16:11.952Z,28.50
2022-08-11T18:18:58.696Z,28.40
2022-08-11T18:21:46.758Z,28.30
2022-08-11T18:24:57.124Z,28.30
2022-08-11T18:27:46.715Z,28.20
2022-08-11T18:30:32.459Z,28.10
2022-08-11T18:36:32.176Z,28.00
2022-08-11T18:39:19.130Z,27.80
2022-08-11T18:42:06.028Z,27.70
2022-08-11T18:44:53.550Z,27.60
2022-08-11T18:47:41.914Z,27.50
2022-08-11T18:50:38.609Z,27.40
2022-08-11T18:53:29.153Z,27.30
2022-08-11T18:56:16.788Z,27.30
2022-08-11T18:59:05.863Z,27.10
2022-08-11T19:01:55.260Z,26.90
2022-08-11T19:04:41.807Z,26.60
2022-08-11T19:07:30.497Z,26.40
2022-08-11T19:10:18.346Z,26.20
2022-08-11T19:13:05.764Z,25.90
2022-08-11T19:15:54.197Z,25.70
2022-08-11T19:18:41.851Z,25.50
2022-08-11T19:21:28.638Z,25.30
2022-08-11T19:24:18.564Z,25.10
2022-08-11T19:27:07.008Z,24.90
2022-08-11T19:30:04.906Z,24.60
2022-08-11T19:33:00.125Z,24.30
2022-08-11T19:35:46.466Z,24.10
2022-08-11T19:38:33.241Z,24.00
2022-08-11T19:41:21.913Z,23.90
2022-08-11T19:44:26.627Z,23.80
2022-08-11T19:47:13.240Z,23.60
2022-08-11T19:50:01.500Z,23.40
2022-08-11T19:52:48.729Z,23.30
2022-08-11T19:55:36.138Z,23.10
2022-08-11T19:58:22.470Z,22.90
2022-08-11T20:01:09.569Z,22.80
2022-08-11T20:03:55.458Z,22.70
2022-08-11T20:06:42.094Z,22.60
2022-08-11T20:10:05.044Z,22.50
2022-08-11T20:12:37.764Z,22.30
2022-08-11T20:15:25.483Z,22.20
2022-08-11T20:18:12.419Z,22.00
2022-08-11T20:20:58.375Z,21.80
2022-08-11T20:23:44.790Z,21.70
2022-08-11T20:26:31.503Z,21.70
2022-08-11T20:29:19.429Z,21.50
2022-08-11T20:32:09.420Z,21.50
2022-08-11T20:34:58.035Z,21.40
2022-08-11T20:37:50.220Z,21.40
2022-08-11T20:40:38.638Z,21.20
2022-08-11T20:44:07.916Z,21.00
2022-08-11T20:46:33.701Z,21.00
2022-08-11T20:49:21.326Z,20.90
2022-08-11T20:52:08.910Z,20.90
2022-08-11T20:54:56.916Z,20.90
2022-08-11T20:57:58.668Z,20.90
2022-08-11T21:00:47.543Z,20.80
2022-08-11T21:03:36.347Z,20.80
2022-08-11T21:06:33.421Z,20.70
2022-08-11T21:09:44.211Z,20.50
2022-08-11T21:12:30.972Z,20.40
2022-08-11T21:15:47.057Z,20.20
2022-08-11T21:18:28.446Z,20.20
2022-08-11T21:21:18.464Z,20.10
2022-08-11T21:24:07.189Z,20.00
2022-08-11T21:27:03.407Z,20.00
2022-08-11T21:29:51.075Z,19.90
2022-08-11T21:32:37.633Z,20.00
2022-08-11T21:35:24.898Z,19.80
2022-08-11T21:38:10.931Z,19.80
2022-08-11T21:41:00.125Z,19.80
2022-08-11T21:43:50.163Z,19.80
2022-08-11T21:46:39.123Z,19.70
2022-08-11T21:49:28.237Z,19.80
2022-08-11T21:52:13.902Z,19.80
2022-08-11T21:55:00.100Z,19.80
2022-08-11T21:57:48.089Z,19.80
2022-08-11T22:00:37.354Z,19.80
2022-08-11T22:03:24.964Z,19.70
2022-08-11T22:06:12.473Z,19.80
2022-08-11T22:08:59.008Z,19.70
2022-08-11T22:11:44.493Z,19.70
2022-08-11T22:14:30.234Z,19.60
2022-08-11T22:17:17.274Z,19.60
2022-08-11T22:20:03.934Z,19.50
2022-08-11T22:22:52.882Z,19.50
2022-08-11T22:25:51.327Z,19.40
2022-08-11T22:28:37.909Z,19.50
2022-08-11T22:31:25.351Z,19.50
2022-08-11T22:34:11.961Z,19.60
2022-08-11T22:36:59.708Z,19.70
2022-08-11T22:40:01.829Z,19.60
2022-08-11T22:42:48.595Z,19.50
2022-08-11T22:45:34.748Z,19.30
2022-08-11T22:48:22.964Z,19.10
2022-08-11T22:51:10.576Z,18.90
2022-08-11T22:53:59.092Z,18.80
2022-08-11T22:56:48.128Z,18.70
2022-08-11T22:59:35.041Z,18.60
2022-08-11T23:02:21.808Z,18.60
2022-08-11T23:05:08.301Z,18.80
2022-08-11T23:07:56.110Z,18.80
2022-08-11T23:10:42.853Z,18.90
2022-08-11T23:13:28.900Z,18.90
2022-08-11T23:16:15.559Z,18.90
2022-08-11T23:19:02.064Z,18.80
2022-08-11T23:21:49.766Z,18.70
2022-08-11T23:24:38.336Z,18.70
2022-08-11T23:27:27.431Z,18.70
2022-08-11T23:30:18.594Z,18.60
2022-08-11T23:33:06.827Z,18.50
2022-08-11T23:35:58.017Z,18.50
2022-08-11T23:38:46.796Z,18.40
2022-08-11T23:41:34.643Z,18.40
2022-08-11T23:44:21.916Z,18.50
2022-08-11T23:47:09.123Z,18.50
2022-08-11T23:49:55.628Z,18.50
2022-08-11T23:52:45.524Z,18.50
2022-08-11T23:55:31.493Z,18.50
2022-08-11T23:58:18.710Z,18.50
